| time (UTC) | temp F | wind direction | speed MPH | gust MPH | rain 1hr in | rain 24hr in | rain mn in | humidity % | barometer mb |
| 20260508200050 | 65 | 273 | 4.0 | 16.0 | 0.00 | 0.00 | 0.00 | 40 | 1003.6 |
| 20260508194509 | 64 | 311 | 6.0 | 15.0 | 0.00 | 0.00 | 0.00 | 39 | 1003.7 |
| 20260508193034 | 65 | 306 | 7.0 | 20.0 | 0.00 | 0.00 | 0.00 | 38 | 1003.7 |
| 20260508191503 | 64 | 326 | 8.0 | 22.0 | 0.00 | 0.00 | 0.00 | 40 | 1003.8 |
| 20260508190035 | 65 | 285 | 6.0 | 17.0 | 0.00 | 0.00 | 0.00 | 39 | 1003.8 |
| 20260508184556 | 65 | 311 | 10.0 | 21.0 | 0.00 | 0.00 | 0.00 | 37 | 1003.8 |
| 20260508183005 | 65 | 251 | 6.0 | 11.0 | 0.00 | 0.00 | 0.00 | 39 | 1004.0 |
| 20260508181537 | 64 | 261 | 7.0 | 17.0 | 0.00 | 0.00 | 0.00 | 38 | 1004.2 |
| 20260508180057 | 63 | 294 | 7.0 | 14.0 | 0.00 | 0.00 | 0.00 | 40 | 1004.4 |
| 20260508174516 | 62 | 309 | 5.0 | 10.0 | 0.00 | 0.00 | 0.00 | 40 | 1004.6 |
| 20260508173039 | 63 | 276 | 3.0 | 17.0 | 0.00 | 0.00 | 0.00 | 42 | 1004.7 |
| 20260508171547 | 63 | 315 | 7.0 | 14.0 | 0.00 | 0.00 | 0.00 | 42 | 1004.8 |
| 20260508170029 | 62 | 315 | 8.0 | 20.0 | 0.00 | 0.00 | 0.00 | 41 | 1004.8 |
| 20260508164543 | 62 | 315 | 7.0 | 16.0 | 0.00 | 0.00 | 0.00 | 43 | 1004.7 |
| 20260508163105 | 61 | 274 | 5.0 | 16.0 | 0.00 | 0.00 | 0.00 | 43 | 1005.1 |
| 20260508161530 | 61 | 287 | 5.0 | 11.0 | 0.00 | 0.00 | 0.00 | 44 | 1005.5 |
| 20260508160037 | 60 | 261 | 6.0 | 14.0 | 0.00 | 0.00 | 0.00 | 45 | 1005.7 |
| 20260508154552 | 60 | 304 | 9.0 | 22.0 | 0.00 | 0.00 | 0.00 | 42 | 1006.0 |
| 20260508153101 | 60 | 318 | 7.0 | 12.0 | 0.00 | 0.00 | 0.00 | 41 | 1006.0 |
| 20260508151506 | 60 | 249 | 1.0 | 11.0 | 0.00 | 0.00 | 0.00 | 45 | 1006.1 |
| 20260508150033 | 58 | 322 | 4.0 | 12.0 | 0.00 | 0.00 | 0.00 | 45 | 1006.2 |
| 20260508144553 | 58 | 259 | 2.0 | 9.0 | 0.00 | 0.00 | 0.00 | 47 | 1006.2 |
| 20260508143021 | 58 | 296 | 5.0 | 9.0 | 0.00 | 0.00 | 0.00 | 46 | 1006.3 |
| 20260508141541 | 57 | 273 | 0.0 | 9.0 | 0.00 | 0.00 | 0.00 | 50 | 1006.3 |
| 20260508140058 | 56 | 318 | 2.0 | 5.0 | 0.00 | 0.00 | 0.00 | 52 | 1006.4 |
| 20260508134519 | 55 | 296 | 2.0 | 7.0 | 0.00 | 0.00 | 0.00 | 52 | 1006.4 |
| 20260508133050 | 55 | 301 | 1.0 | 5.0 | 0.00 | 0.00 | 0.00 | 56 | 1006.4 |
| 20260508131545 | 55 | 288 | 1.0 | 6.0 | 0.00 | 0.00 | 0.00 | 58 | 1006.5 |
| 20260508130001 | 53 | 313 | 1.0 | 11.0 | 0.00 | 0.00 | 0.00 | 61 | 1006.7 |
| 20260508124527 | 53 | 306 | 2.0 | 10.0 | 0.00 | 0.00 | 0.00 | 66 | 1006.6 |
| 20260508123110 | 52 | 324 | 2.0 | 6.0 | 0.00 | 0.00 | 0.00 | 69 | 1006.7 |
| 20260508121527 | 51 | 299 | 2.0 | 7.0 | 0.00 | 0.00 | 0.00 | 71 | 1006.5 |
| 20260508120159 | 50 | 305 | 1.0 | 6.0 | 0.00 | 0.00 | 0.00 | 74 | 1006.2 |
| 20260508114524 | 49 | 289 | 2.0 | 5.0 | 0.00 | 0.00 | 0.00 | 77 | 1006.1 |
| 20260508113050 | 48 | 290 | 0.0 | 4.0 | 0.00 | 0.00 | 0.00 | 79 | 1006.3 |
| 20260508111522 | 47 | 294 | 0.0 | 3.0 | 0.00 | 0.00 | 0.00 | 81 | 1006.3 |
| 20260508110056 | 47 | 296 | 0.0 | 3.0 | 0.00 | 0.00 | 0.00 | 82 | 1006.1 |
| 20260508104510 | 46 | 296 | 0.0 | 0.0 | 0.00 | 0.00 | 0.00 | 83 | 1005.9 |
| 20260508103034 | 45 | 296 | 0.0 | 0.0 | 0.00 | 0.00 | 0.00 | 85 | 1005.9 |
| 20260508101559 | 44 | 296 | 0.0 | 0.0 | 0.00 | 0.00 | 0.00 | 87 | 1005.7 |
| 20260508100025 | 43 | 296 | 0.0 | 0.0 | 0.00 | 0.00 | 0.00 | 85 | 1005.4 |
| 20260508094545 | 44 | 296 | 0.0 | 0.0 | 0.00 | 0.00 | 0.00 | 85 | 1005.4 |
| 20260508093002 | 44 | 296 | 0.0 | 0.0 | 0.00 | 0.00 | 0.00 | 83 | 1005.4 |
| 20260508091533 | 44 | 296 | 0.0 | 0.0 | 0.00 | 0.00 | 0.00 | 81 | 1005.3 |
| 20260508090110 | 45 | 296 | 0.0 | 0.0 | 0.00 | 0.00 | 0.00 | 80 | 1005.1 |
| 20260508084526 | 46 | 296 | 0.0 | 0.0 | 0.00 | 0.02 | 0.00 | 78 | 1005.0 |
| 20260508083042 | 47 | 296 | 0.0 | 0.0 | 0.00 | 0.02 | 0.00 | 76 | 1004.8 |
| 20260508081634 | 48 | 292 | 0.0 | 2.0 | 0.00 | 0.02 | 0.00 | 75 | 1004.6 |
| 20260508080015 | 49 | 304 | 0.0 | 5.0 | 0.00 | 0.02 | 0.00 | 73 | 1004.2 |
| 20260508074540 | 49 | 299 | 0.0 | 5.0 | 0.00 | 0.07 | 0.00 | 73 | 1004.1 |
| 20260508073006 | 50 | 301 | 1.0 | 8.0 | 0.00 | 0.07 | 0.00 | 72 | 1004.0 |
| 20260508071527 | 50 | 313 | 1.0 | 4.0 | 0.00 | 0.07 | 0.00 | 70 | 1003.6 |
| 20260508070140 | 51 | 301 | 0.0 | 8.0 | 0.00 | 0.07 | 0.00 | 68 | 1003.4 |
| 20260508064511 | 52 | 307 | 1.0 | 7.0 | 0.00 | 0.14 | 0.00 | 67 | 1003.2 |
| 20260508063033 | 52 | 299 | 2.0 | 8.0 | 0.00 | 0.14 | 0.00 | 67 | 1003.2 |
| 20260508061551 | 52 | 281 | 0.0 | 5.0 | 0.00 | 0.14 | 0.00 | 67 | 1002.3 |
| 20260508060007 | 53 | 293 | 0.0 | 4.0 | 0.00 | 0.14 | 0.00 | 71 | 1002.2 |
| 20260508054538 | 53 | 292 | 0.0 | 3.0 | 0.00 | 0.21 | 0.00 | 69 | 1002.2 |
| 20260508053105 | 54 | 292 | 1.0 | 2.0 | 0.00 | 0.21 | 0.00 | 67 | 1002.1 |
| 20260508051530 | 54 | 299 | 0.0 | 2.0 | 0.00 | 0.21 | 0.00 | 67 | 1002.0 |
| 20260508050041 | 53 | 299 | 0.0 | 1.0 | 0.00 | 0.21 | 0.00 | 67 | 1001.9 |
| 20260508044510 | 54 | 299 | 0.0 | 3.0 | 0.00 | 0.21 | 0.00 | 64 | 1001.8 |
| 20260508043044 | 54 | 299 | 0.0 | 0.0 | 0.00 | 0.21 | 0.00 | 64 | 1001.8 |
| 20260508041505 | 53 | 299 | 0.0 | 0.0 | 0.00 | 0.21 | 0.00 | 64 | 1001.8 |
| 20260508040019 | 53 | 299 | 0.0 | 0.0 | 0.00 | 0.21 | 0.00 | 70 | 1001.8 |
| 20260508034549 | 52 | 299 | 0.0 | 0.0 | 0.00 | 0.21 | 0.21 | 70 | 1001.4 |
| 20260508033005 | 52 | 299 | 0.0 | 0.0 | 0.00 | 0.21 | 0.21 | 69 | 1001.4 |
| 20260508031523 | 52 | 299 | 0.0 | 0.0 | 0.00 | 0.21 | 0.21 | 69 | 1001.4 |
| 20260508030105 | 52 | 299 | 0.0 | 0.0 | 0.00 | 0.21 | 0.21 | 68 | 1001.5 |
| 20260508024538 | 52 | 299 | 0.0 | 0.0 | 0.00 | 0.23 | 0.21 | 66 | 1001.5 |
| 20260508023002 | 52 | 299 | 0.0 | 0.0 | 0.00 | 0.23 | 0.21 | 65 | 1001.5 |
| 20260508021526 | 52 | 299 | 0.0 | 0.0 | 0.00 | 0.23 | 0.21 | 63 | 1001.4 |
| 20260508020049 | 52 | 299 | 0.0 | 0.0 | 0.00 | 0.23 | 0.21 | 61 | 1001.4 |
| 20260508014511 | 53 | 299 | 0.0 | 0.0 | 0.00 | 0.35 | 0.21 | 60 | 1001.3 |
| 20260508013037 | 53 | 299 | 0.0 | 0.0 | 0.00 | 0.35 | 0.21 | 59 | 1001.2 |
| 20260508011545 | 54 | 299 | 0.0 | 0.0 | 0.00 | 0.35 | 0.21 | 57 | 1001.0 |
| 20260508010010 | 55 | 299 | 0.0 | 0.0 | 0.00 | 0.35 | 0.21 | 54 | 1001.0 |
| 20260508004531 | 56 | 299 | 0.0 | 0.0 | 0.00 | 0.35 | 0.21 | 49 | 1001.1 |
| 20260508003100 | 58 | 299 | 0.0 | 0.0 | 0.00 | 0.35 | 0.21 | 46 | 1000.8 |
| 20260508001517 | 60 | 299 | 0.0 | 0.0 | 0.00 | 0.35 | 0.21 | 43 | 1000.7 |
| 20260508000048 | 61 | 299 | 0.0 | 3.0 | 0.00 | 0.35 | 0.21 | 41 | 1000.5 |
| 20260507234520 | 62 | 294 | 0.0 | 3.0 | 0.00 | 0.35 | 0.21 | 39 | 1000.5 |
| 20260507233040 | 63 | 295 | 1.0 | 5.0 | 0.00 | 0.35 | 0.21 | 38 | 1000.4 |
| 20260507231606 | 64 | 292 | 3.0 | 8.0 | 0.00 | 0.35 | 0.21 | 36 | 1000.4 |
| 20260507230050 | 65 | 320 | 1.0 | 7.0 | 0.00 | 0.35 | 0.21 | 35 | 1000.2 |
| 20260507224508 | 65 | 294 | 3.0 | 11.0 | 0.00 | 0.35 | 0.21 | 35 | 1000.1 |
| 20260507223041 | 65 | 280 | 1.0 | 5.0 | 0.00 | 0.35 | 0.21 | 35 | 1000.0 |
| 20260507221515 | 65 | 331 | 2.0 | 10.0 | 0.00 | 0.35 | 0.21 | 35 | 1000.2 |
| 20260507220027 | 65 | 287 | 3.0 | 8.0 | 0.00 | 0.35 | 0.21 | 35 | 1000.2 |
| 20260507214601 | 66 | 293 | 3.0 | 11.0 | 0.00 | 0.35 | 0.21 | 33 | 1000.2 |
| 20260507213028 | 66 | 126 | 1.0 | 5.0 | 0.00 | 0.35 | 0.21 | 35 | 1000.3 |
| 20260507211548 | 66 | 312 | 2.0 | 6.0 | 0.00 | 0.35 | 0.21 | 36 | 1000.2 |
| 20260507210006 | 66 | 324 | 5.0 | 11.0 | 0.00 | 0.35 | 0.21 | 34 | 1000.2 |
| 20260507204512 | 65 | 315 | 3.0 | 11.0 | 0.00 | 0.35 | 0.21 | 37 | 1000.1 |
| 20260507203051 | 65 | 286 | 2.0 | 11.0 | 0.00 | 0.35 | 0.21 | 36 | 1000.1 |
| 20260507201541 | 65 | 250 | 1.0 | 4.0 | 0.00 | 0.35 | 0.21 | 35 | 1000.2 |